Home > Products > Valid Products > TAF

000
FTUS44 KLUB 261100
TAFLBB
TAF
KLBB 261123Z 2612/2712 33009KT P6SM SKC
     FM261330 36015KT P6SM FEW300
     FM262000 VRB06KT P6SM FEW300=



000
FTUS44 KLUB 261100
TAFCDS
TAF
KCDS 261123Z 2612/2712 35014KT P6SM FEW300
     FM262000 VRB06KT P6SM FEW300=



000
FTUS44 KLUB 260500
TAFCDS
TAF
KCDS 260520Z 2606/2706 24008KT P6SM SKC
     FM261200 35014KT P6SM SCT250
     FM262000 VRB06KT P6SM SCT250=



000
FTUS44 KLUB 260500
TAFLBB
TAF
KLBB 260520Z 2606/2706 26009KT P6SM SKC
     FM261400 35011KT P6SM SCT300
     FM262000 VRB06KT P6SM FEW250=



000
FTUS44 KLUB 252300
TAFLBB
TAF
KLBB 252327Z 2600/2624 25015KT P6SM SCT250
     FM260200 25011KT P6SM SCT250
     FM261400 35011KT P6SM SCT300
     FM262000 VRB06KT P6SM FEW250=



000
FTUS44 KLUB 252300
TAFCDS
TAF
KCDS 252327Z 2600/2624 23011KT P6SM FEW250
     FM261200 35014KT P6SM SCT250
     FM262000 VRB06KT P6SM SCT250=



000
FTUS44 KLUB 251700
TAFCDS
TAF
KCDS 251730Z 2518/2618 30007KT P6SM SKC
     FM252100 24015G25KT P6SM SCT300
     FM260000 21011KT P6SM SCT300
     FM261200 35014KT P6SM SCT300=



000
FTUS44 KLUB 251700
TAFLBB
TAF
KLBB 251730Z 2518/2618 26008KT P6SM SKC
     FM252000 24017G27KT P6SM FEW300
     FM260000 25014KT P6SM SCT300
     FM261400 35014KT P6SM SCT300=



000
FTUS44 KLUB 251100
TAFCDS
TAF
KCDS 251120Z 2512/2612 30007KT P6SM SKC
     FM252000 24015G25KT P6SM SCT200
     FM260000 23011KT P6SM SCT300
     FM260800 35014KT P6SM FEW300=



000
FTUS44 KLUB 251100
TAFLBB
TAF
KLBB 251120Z 2512/2612 26008KT P6SM SKC
     FM252000 24017G27KT P6SM FEW250
     FM260000 25014KT P6SM SKC=



000
FTUS44 KLUB 250500
TAFCDS
TAF
KCDS 250528Z 2506/2606 32009KT P6SM FEW150 BKN300
     FM252100 24017G24KT P6SM SKC
     FM260000 23011KT P6SM SKC=



000
FTUS44 KLUB 250500
TAFLBB
TAF
KLBB 250528Z 2506/2606 35008KT P6SM SCT300
     FM251900 25012KT P6SM SKC
     FM252100 24018G27KT P6SM SKC
     FM260000 25014KT P6SM SKC=



000
FTUS44 KLUB 242300
TAFLBB
TAF
KLBB 242324Z 2500/2524 28009KT P6SM FEW100 SCT250
     FM250600 34011KT P6SM SCT100
     FM251900 25015KT P6SM FEW070=



000
FTUS44 KLUB 242300
TAFCDS
TAF
KCDS 242324Z 2500/2524 VRB04KT P6SM BKN150
     FM250500 34009KT P6SM BKN090
     FM251900 24014KT P6SM SKC=



000
FTUS44 KLUB 241700
TAFCDS
TAF
KCDS 241721Z 2418/2518 27007KT P6SM SCT100
     FM250000 VRB04KT P6SM BKN120
     FM250500 34009KT P6SM BKN090=



000
FTUS44 KLUB 241700
TAFLBB
TAF
KLBB 241721Z 2418/2518 28009KT P6SM SCT250
     FM250600 35012KT P6SM SCT100
     FM251600 27008KT P6SM FEW070=



000
FTUS44 KLUB 241700
TAFCDS
TAF
KCDS 241720Z 2418/2518 30006KT P6SM SCT100
     FM250600 35009KT P6SM FEW150=



000
FTUS44 KLUB 241700
TAFLBB
TAF
KLBB 241720Z 2418/2518 28006KT P6SM FEW260
     FM250600 35011KT P6SM FEW150=



000
FTUS44 KLUB 241100
TAFLBB
TAF
KLBB 241122Z 2412/2512 30010KT P6SM SCT150
     FM250600 35011KT P6SM FEW150=



000
FTUS44 KLUB 241100
TAFCDS
TAF
KCDS 241122Z 2412/2512 29009KT P6SM SCT120
     FM250600 35009KT P6SM FEW150=



000
FTUS44 KLUB 240500
TAFCDS
TAF
KCDS 240520Z 2406/2506 30009KT P6SM SCT110=



000
FTUS44 KLUB 240500
TAFLBB
TAF
KLBB 240520Z 2406/2506 32008KT P6SM SCT120=



000
FTUS44 KLUB 240100 AAA
TAFLBB
TAF AMD
KLBB 240153Z 2402/2424 32008KT P6SM SCT120=



000
FTUS44 KLUB 240100 AAB
TAFCDS
TAF AMD
KCDS 240153Z 2402/2424 34015KT P6SM SCT050 BKN080
     FM240300 32009KT P6SM SCT110=



000
FTUS44 KLUB 240000 AAA
TAFCDS
TAF AMD
KCDS 240006Z 2400/2424 34025KT P6SM SCT050 BKN080
     FM240300 32009KT P6SM SCT110=



000
FTUS44 KLUB 232300
TAFLBB
TAF
KLBB 232322Z 2400/2424 36022KT P6SM SCT040 SCT080
     FM240300 32008KT P6SM SCT120=



000
FTUS44 KLUB 232300
TAFCDS
TAF
KCDS 232322Z 2400/2424 31018KT P6SM SCT050 BKN080
     FM240300 32009KT P6SM SCT110=



000
FTUS44 KLUB 232200 AAA
TAFLBB
TAF AMD
KLBB 232259Z 2323/2418 36022KT P6SM SCT040
     FM240300 30007KT P6SM SCT120=



000
FTUS44 KLUB 231700
TAFLBB
TAF
KLBB 231730Z 2318/2418 32032G42KT 6SM BLDU SCT100
     FM232300 33017KT P6SM SCT040
     FM240300 30007KT P6SM SCT120=



000
FTUS44 KLUB 231700
TAFCDS
TAF
KCDS 231730Z 2318/2418 34030G40KT P6SM SCT040
     FM232300 31016KT P6SM BKN080
     FM240300 29007KT P6SM SCT120=



000
FTUS44 KLUB 231600 AAA
TAFLBB
TAF AMD
KLBB 231625Z 2316/2412 31029G39KT 6SM BLDU SCT100
     FM240000 33015KT P6SM SCT090
     FM240300 30007KT P6SM SCT120=



    US Dept of Commerce
    National Oceanic and Atmospheric Administration
    National Weather Service
    1325 East West Highway
    Silver Spring, MD 20910
    Page Author: NWS Internet Services Team
Disclaimer
Information Quality
Credits
Glossary
Privacy Policy
Freedom of Information Act (FOIA)
About Us
Career Opportunities